sim
Sign-in with your pilot id or email,
or register
Callsign
Passwort

Schedule Details

Flight Number: RYR3806 (1)
Departure: Fuerteventura Airport (GCFV) at 11:15
Arrival: Manchester Airport (EGCC) at 15:40
Route: Ryanair Passenger Schedule. Enter filed route here before submitting Pirep.

Weather Information
Getting current METAR information for GCFV 172330Z AUTO 02009KT 9999 NCD 23/20 Q1014
Getting current METAR information for EGCC 172320Z AUTO 19004KT 140V220 9999 NCD 13/10 Q1001 NOSIG

Schedule Frequency

Route Map